PILOTS ONLINE: 668    ATC ONLINE: 125

Location

IATA WTN
City Waddington
Country  United Kingdom
Latitude 53° 9' 58" N
Longitude 0° 31' 25" W
Elevation 231 ft
Type Medium Airport

Weather

METAR
2014/07/13 15:50
EGXW 131550Z 29011KT 9999 BKN042 21/10 Q1007 BLU NOSIG
TAF
2014/07/13 21:35
TAF EGXW 121939Z 1221/1315 14005KT 9999 FEW045 PROB40 
      TEMPO 1221/1302 4000 +TSRA BKN024CB PROB30 
      TEMPO 1302/1307 4000 BR SCT004 
      BECMG 1304/1307 BKN010 
      BECMG 1308/1311 SCT030 
      TEMPO 1311/1315 5000 SHRA BKN022TCU

Runways

02/20 9000 ft / 200 ft

Outbound flights

Inbound flights


Spotted incorrect airport information? Please login with your VATSIM ID.